Terminal Aerodrome Forecast
Issued by NWS St Louis, MO

Home | Current Version | Previous Version | Graphics & Text | Print | Product List | Glossary On
Versions: 1 2 3 4 5 6 7 8 9 10 11 12 13 14 15 16 17 18 19 20 21 22 23 24 25 26 27
000
FTUS43 KLSX 291100 AAB
TAFSTL
TAF AMD
KSTL 291106Z 2911/3012 16010KT P6SM SKC
      TEMPO 2911/2912 BKN045
     FM291500 18015G25KT P6SM SCT050 BKN100
     FM291900 21012G20KT P6SM -SHRA BKN050
     FM292300 26010KT P6SM SCT050 SCT100=

USA.gov is the U.S. government's official web portal to all federal, state and local government web resources and services.